Terminal Aerodrome Forecast
Issued by NWS

Home | Current Version | Previous Version | Text Only | Print | Product List | Glossary On
Versions: 1 2 3 4 5 6 7 8 9 10 11 12
000
FTUS43 KAPX 301120
TAFAPN
TAF
KAPN 301120Z 3012/0112 VRB03KT P6SM BKN250
     FM301700 13007KT P6SM BKN080
     FM302300 VRB03KT 6SM -SHRA OVC050
     FM010300 34007KT 6SM -SHRA OVC040
     FM010500 34008KT P6SM OVC025=

USA.gov is the U.S. government's official web portal to all federal, state and local government web resources and services.